sensor_id;sensor_type;location;lat;lon;timestamp;temperature;humidity
8527;DHT22;4301;48.362;8.478;2022-08-01T00:00:32;17.10;99.90
8527;DHT22;4301;48.362;8.478;2022-08-01T00:02:59;17.10;99.90
8527;DHT22;4301;48.362;8.478;2022-08-01T00:05:26;17.10;99.90
8527;DHT22;4301;48.362;8.478;2022-08-01T00:07:53;17.00;99.90
8527;DHT22;4301;48.362;8.478;2022-08-01T00:10:20;17.00;99.90
8527;DHT22;4301;48.362;8.478;2022-08-01T00:12:47;17.00;99.90
8527;DHT22;4301;48.362;8.478;2022-08-01T00:15:16;17.00;99.90
8527;DHT22;4301;48.362;8.478;2022-08-01T00:17:44;16.90;99.90
8527;DHT22;4301;48.362;8.478;2022-08-01T00:20:13;17.00;99.90
8527;DHT22;4301;48.362;8.478;2022-08-01T00:22:40;16.90;99.90
8527;DHT22;4301;48.362;8.478;2022-08-01T00:25:07;16.90;99.90
8527;DHT22;4301;48.362;8.478;2022-08-01T00:27:35;16.80;99.90
8527;DHT22;4301;48.362;8.478;2022-08-01T00:30:02;16.70;99.90
8527;DHT22;4301;48.362;8.478;2022-08-01T00:32:30;16.70;99.90
8527;DHT22;4301;48.362;8.478;2022-08-01T00:34:58;16.60;99.90
8527;DHT22;4301;48.362;8.478;2022-08-01T00:37:25;16.60;99.90
8527;DHT22;4301;48.362;8.478;2022-08-01T00:39:52;16.60;99.90
8527;DHT22;4301;48.362;8.478;2022-08-01T00:42:19;16.60;99.90
8527;DHT22;4301;48.362;8.478;2022-08-01T00:44:46;16.70;99.90
8527;DHT22;4301;48.362;8.478;2022-08-01T00:47:13;16.70;99.90
8527;DHT22;4301;48.362;8.478;2022-08-01T00:49:40;16.60;99.90
8527;DHT22;4301;48.362;8.478;2022-08-01T00:52:09;16.60;99.90
8527;DHT22;4301;48.362;8.478;2022-08-01T00:54:37;16.50;99.90
8527;DHT22;4301;48.362;8.478;2022-08-01T00:57:04;16.50;99.90
8527;DHT22;4301;48.362;8.478;2022-08-01T00:59:31;16.50;99.90
8527;DHT22;4301;48.362;8.478;2022-08-01T01:01:58;16.50;99.90
8527;DHT22;4301;48.362;8.478;2022-08-01T01:04:25;16.50;99.90
8527;DHT22;4301;48.362;8.478;2022-08-01T01:06:59;16.40;99.90
8527;DHT22;4301;48.362;8.478;2022-08-01T01:09:41;16.40;99.90
8527;DHT22;4301;48.362;8.478;2022-08-01T01:12:15;16.30;99.90
8527;DHT22;4301;48.362;8.478;2022-08-01T01:14:53;16.30;99.90
8527;DHT22;4301;48.362;8.478;2022-08-01T01:17:26;16.20;99.90
8527;DHT22;4301;48.362;8.478;2022-08-01T01:19:55;16.00;99.90
8527;DHT22;4301;48.362;8.478;2022-08-01T01:22:36;15.90;99.90
8527;DHT22;4301;48.362;8.478;2022-08-01T01:25:25;15.90;99.90
8527;DHT22;4301;48.362;8.478;2022-08-01T01:28:02;15.80;99.90
8527;DHT22;4301;48.362;8.478;2022-08-01T01:30:33;16.00;99.90
8527;DHT22;4301;48.362;8.478;2022-08-01T01:33:02;15.90;99.90
8527;DHT22;4301;48.362;8.478;2022-08-01T01:35:32;15.90;99.90
8527;DHT22;4301;48.362;8.478;2022-08-01T01:38:04;15.80;99.90
8527;DHT22;4301;48.362;8.478;2022-08-01T01:40:33;15.60;99.90
8527;DHT22;4301;48.362;8.478;2022-08-01T01:43:00;15.50;99.90
8527;DHT22;4301;48.362;8.478;2022-08-01T01:45:28;15.40;99.90
8527;DHT22;4301;48.362;8.478;2022-08-01T01:47:59;15.30;99.90
8527;DHT22;4301;48.362;8.478;2022-08-01T01:50:28;15.30;99.90
8527;DHT22;4301;48.362;8.478;2022-08-01T01:52:56;15.30;99.90
8527;DHT22;4301;48.362;8.478;2022-08-01T01:55:25;15.20;99.90
8527;DHT22;4301;48.362;8.478;2022-08-01T01:57:54;15.10;99.90
8527;DHT22;4301;48.362;8.478;2022-08-01T02:00:24;15.20;99.90
8527;DHT22;4301;48.362;8.478;2022-08-01T02:02:52;15.10;99.90
8527;DHT22;4301;48.362;8.478;2022-08-01T02:05:22;15.20;99.90
8527;DHT22;4301;48.362;8.478;2022-08-01T02:07:52;15.20;99.90
8527;DHT22;4301;48.362;8.478;2022-08-01T02:10:20;15.20;99.90
8527;DHT22;4301;48.362;8.478;2022-08-01T02:12:49;15.20;99.90
8527;DHT22;4301;48.362;8.478;2022-08-01T02:15:17;15.20;99.90
8527;DHT22;4301;48.362;8.478;2022-08-01T02:17:48;15.20;99.90
8527;DHT22;4301;48.362;8.478;2022-08-01T02:20:16;15.10;99.90
8527;DHT22;4301;48.362;8.478;2022-08-01T02:22:48;15.10;99.90
8527;DHT22;4301;48.362;8.478;2022-08-01T02:25:21;15.10;99.90
8527;DHT22;4301;48.362;8.478;2022-08-01T02:27:55;15.00;99.90
8527;DHT22;4301;48.362;8.478;2022-08-01T02:30:29;15.00;99.90
8527;DHT22;4301;48.362;8.478;2022-08-01T02:33:02;14.90;99.90
8527;DHT22;4301;48.362;8.478;2022-08-01T02:35:32;14.90;99.90
8527;DHT22;4301;48.362;8.478;2022-08-01T02:38:03;14.90;99.90
8527;DHT22;4301;48.362;8.478;2022-08-01T02:40:33;14.90;99.90
8527;DHT22;4301;48.362;8.478;2022-08-01T02:43:05;14.90;99.90
8527;DHT22;4301;48.362;8.478;2022-08-01T02:45:35;14.90;99.90
8527;DHT22;4301;48.362;8.478;2022-08-01T02:48:10;14.90;99.90
8527;DHT22;4301;48.362;8.478;2022-08-01T02:50:40;14.90;99.90
8527;DHT22;4301;48.362;8.478;2022-08-01T02:53:11;14.90;99.90
8527;DHT22;4301;48.362;8.478;2022-08-01T02:55:40;14.90;99.90
8527;DHT22;4301;48.362;8.478;2022-08-01T02:58:09;14.90;99.90
8527;DHT22;4301;48.362;8.478;2022-08-01T03:00:38;14.80;99.90
8527;DHT22;4301;48.362;8.478;2022-08-01T03:03:07;14.70;99.90
8527;DHT22;4301;48.362;8.478;2022-08-01T03:05:36;14.70;99.90
8527;DHT22;4301;48.362;8.478;2022-08-01T03:08:06;14.70;99.90
8527;DHT22;4301;48.362;8.478;2022-08-01T03:10:38;14.70;99.90
8527;DHT22;4301;48.362;8.478;2022-08-01T03:13:07;14.70;99.90
8527;DHT22;4301;48.362;8.478;2022-08-01T03:15:37;14.60;99.90
8527;DHT22;4301;48.362;8.478;2022-08-01T03:18:07;14.60;99.90
8527;DHT22;4301;48.362;8.478;2022-08-01T03:20:35;14.50;99.90
8527;DHT22;4301;48.362;8.478;2022-08-01T03:23:05;14.30;99.90
8527;DHT22;4301;48.362;8.478;2022-08-01T03:25:33;14.30;99.90
8527;DHT22;4301;48.362;8.478;2022-08-01T03:28:04;14.30;99.90
8527;DHT22;4301;48.362;8.478;2022-08-01T03:30:33;14.30;99.90
8527;DHT22;4301;48.362;8.478;2022-08-01T03:33:02;14.30;99.90
8527;DHT22;4301;48.362;8.478;2022-08-01T03:35:33;14.20;99.90
8527;DHT22;4301;48.362;8.478;2022-08-01T03:38:01;14.20;99.90
8527;DHT22;4301;48.362;8.478;2022-08-01T03:40:34;14.20;99.90
8527;DHT22;4301;48.362;8.478;2022-08-01T03:43:05;14.20;99.90
8527;DHT22;4301;48.362;8.478;2022-08-01T03:45:36;14.10;99.90
8527;DHT22;4301;48.362;8.478;2022-08-01T03:48:10;14.20;99.90
8527;DHT22;4301;48.362;8.478;2022-08-01T03:50:42;14.10;99.90
8527;DHT22;4301;48.362;8.478;2022-08-01T03:53:10;14.00;99.90
8527;DHT22;4301;48.362;8.478;2022-08-01T03:55:39;13.90;99.90
8527;DHT22;4301;48.362;8.478;2022-08-01T03:58:09;13.90;99.90
8527;DHT22;4301;48.362;8.478;2022-08-01T04:00:38;13.90;99.90
8527;DHT22;4301;48.362;8.478;2022-08-01T04:03:07;13.90;99.90
8527;DHT22;4301;48.362;8.478;2022-08-01T04:05:34;13.90;99.90
8527;DHT22;4301;48.362;8.478;2022-08-01T04:08:02;13.80;99.90
8527;DHT22;4301;48.362;8.478;2022-08-01T04:10:29;13.80;99.90
8527;DHT22;4301;48.362;8.478;2022-08-01T04:12:56;13.80;99.90
8527;DHT22;4301;48.362;8.478;2022-08-01T04:15:25;13.80;99.90
8527;DHT22;4301;48.362;8.478;2022-08-01T04:17:52;13.90;99.90
8527;DHT22;4301;48.362;8.478;2022-08-01T04:20:20;13.80;99.90
8527;DHT22;4301;48.362;8.478;2022-08-01T04:22:47;13.90;99.90
8527;DHT22;4301;48.362;8.478;2022-08-01T04:25:17;13.90;99.90
8527;DHT22;4301;48.362;8.478;2022-08-01T04:27:47;13.90;99.90
8527;DHT22;4301;48.362;8.478;2022-08-01T04:30:16;13.80;99.90
8527;DHT22;4301;48.362;8.478;2022-08-01T04:32:46;13.80;99.90
8527;DHT22;4301;48.362;8.478;2022-08-01T04:35:16;13.80;99.90
8527;DHT22;4301;48.362;8.478;2022-08-01T04:37:44;13.80;99.90
8527;DHT22;4301;48.362;8.478;2022-08-01T04:40:14;13.80;99.90
8527;DHT22;4301;48.362;8.478;2022-08-01T04:42:42;13.80;99.90
8527;DHT22;4301;48.362;8.478;2022-08-01T04:45:10;13.90;99.90
8527;DHT22;4301;48.362;8.478;2022-08-01T04:47:39;13.80;99.90
8527;DHT22;4301;48.362;8.478;2022-08-01T04:50:10;13.80;99.90
8527;DHT22;4301;48.362;8.478;2022-08-01T04:52:38;13.90;99.90
8527;DHT22;4301;48.362;8.478;2022-08-01T04:55:08;13.90;99.90
8527;DHT22;4301;48.362;8.478;2022-08-01T04:57:38;14.00;99.90
8527;DHT22;4301;48.362;8.478;2022-08-01T05:00:07;14.10;99.90
8527;DHT22;4301;48.362;8.478;2022-08-01T05:02:36;14.10;99.90
8527;DHT22;4301;48.362;8.478;2022-08-01T05:05:04;14.20;99.90
8527;DHT22;4301;48.362;8.478;2022-08-01T05:07:33;14.20;99.90
8527;DHT22;4301;48.362;8.478;2022-08-01T05:10:03;14.20;99.90
8527;DHT22;4301;48.362;8.478;2022-08-01T05:12:30;14.30;99.90
8527;DHT22;4301;48.362;8.478;2022-08-01T05:14:58;14.30;99.90
8527;DHT22;4301;48.362;8.478;2022-08-01T05:17:25;14.40;99.90
8527;DHT22;4301;48.362;8.478;2022-08-01T05:19:52;14.50;99.90
8527;DHT22;4301;48.362;8.478;2022-08-01T05:22:19;14.60;99.90
8527;DHT22;4301;48.362;8.478;2022-08-01T05:24:49;14.60;99.90
8527;DHT22;4301;48.362;8.478;2022-08-01T05:27:16;14.70;99.90
8527;DHT22;4301;48.362;8.478;2022-08-01T05:29:43;14.80;99.90
8527;DHT22;4301;48.362;8.478;2022-08-01T05:32:10;14.80;99.90
8527;DHT22;4301;48.362;8.478;2022-08-01T05:34:37;14.90;99.90
8527;DHT22;4301;48.362;8.478;2022-08-01T05:37:04;15.00;99.90
8527;DHT22;4301;48.362;8.478;2022-08-01T05:39:31;15.10;99.90
8527;DHT22;4301;48.362;8.478;2022-08-01T05:41:59;15.20;99.90
8527;DHT22;4301;48.362;8.478;2022-08-01T05:44:26;15.30;99.90
8527;DHT22;4301;48.362;8.478;2022-08-01T05:46:53;15.30;99.90
8527;DHT22;4301;48.362;8.478;2022-08-01T05:49:20;15.40;99.90
8527;DHT22;4301;48.362;8.478;2022-08-01T05:51:47;15.50;99.90
8527;DHT22;4301;48.362;8.478;2022-08-01T05:54:14;15.60;99.90
8527;DHT22;4301;48.362;8.478;2022-08-01T05:56:41;15.70;99.90
8527;DHT22;4301;48.362;8.478;2022-08-01T05:59:09;15.80;99.90
8527;DHT22;4301;48.362;8.478;2022-08-01T06:01:36;16.00;99.90
8527;DHT22;4301;48.362;8.478;2022-08-01T06:04:03;16.10;99.90
8527;DHT22;4301;48.362;8.478;2022-08-01T06:06:30;16.30;99.90
8527;DHT22;4301;48.362;8.478;2022-08-01T06:08:57;16.40;99.90
8527;DHT22;4301;48.362;8.478;2022-08-01T06:11:24;16.50;99.90
8527;DHT22;4301;48.362;8.478;2022-08-01T06:13:51;16.60;99.90
8527;DHT22;4301;48.362;8.478;2022-08-01T06:16:20;16.70;99.90
8527;DHT22;4301;48.362;8.478;2022-08-01T06:18:47;17.00;99.90
8527;DHT22;4301;48.362;8.478;2022-08-01T06:21:14;17.20;99.90
8527;DHT22;4301;48.362;8.478;2022-08-01T06:23:41;17.30;99.90
8527;DHT22;4301;48.362;8.478;2022-08-01T06:26:08;17.50;99.90
8527;DHT22;4301;48.362;8.478;2022-08-01T06:28:35;17.80;99.90
8527;DHT22;4301;48.362;8.478;2022-08-01T06:31:02;18.00;99.90
8527;DHT22;4301;48.362;8.478;2022-08-01T06:33:31;18.10;99.90
8527;DHT22;4301;48.362;8.478;2022-08-01T06:35:58;18.40;99.90
8527;DHT22;4301;48.362;8.478;2022-08-01T06:38:26;18.80;99.90
8527;DHT22;4301;48.362;8.478;2022-08-01T06:40:53;19.10;99.90
8527;DHT22;4301;48.362;8.478;2022-08-01T06:43:20;19.30;99.90
8527;DHT22;4301;48.362;8.478;2022-08-01T06:45:47;19.50;99.90
8527;DHT22;4301;48.362;8.478;2022-08-01T06:48:14;19.70;99.90
8527;DHT22;4301;48.362;8.478;2022-08-01T06:50:42;19.90;99.90
8527;DHT22;4301;48.362;8.478;2022-08-01T06:53:10;20.10;99.90
8527;DHT22;4301;48.362;8.478;2022-08-01T06:55:37;20.20;99.90
8527;DHT22;4301;48.362;8.478;2022-08-01T06:58:04;20.40;99.90
8527;DHT22;4301;48.362;8.478;2022-08-01T07:00:31;20.60;99.90
8527;DHT22;4301;48.362;8.478;2022-08-01T07:02:58;20.80;99.90
8527;DHT22;4301;48.362;8.478;2022-08-01T07:05:25;20.90;99.90
8527;DHT22;4301;48.362;8.478;2022-08-01T07:07:54;20.90;99.90
8527;DHT22;4301;48.362;8.478;2022-08-01T07:10:21;21.00;99.90
8527;DHT22;4301;48.362;8.478;2022-08-01T07:12:48;21.10;99.90
8527;DHT22;4301;48.362;8.478;2022-08-01T07:15:15;21.20;99.90
8527;DHT22;4301;48.362;8.478;2022-08-01T07:17:43;21.30;99.90
8527;DHT22;4301;48.362;8.478;2022-08-01T07:20:11;21.50;99.90
8527;DHT22;4301;48.362;8.478;2022-08-01T07:22:39;21.70;99.90
8527;DHT22;4301;48.362;8.478;2022-08-01T07:25:08;22.00;99.90
8527;DHT22;4301;48.362;8.478;2022-08-01T07:27:35;22.00;99.90
8527;DHT22;4301;48.362;8.478;2022-08-01T07:30:03;22.00;99.90
8527;DHT22;4301;48.362;8.478;2022-08-01T07:32:30;22.00;99.90
8527;DHT22;4301;48.362;8.478;2022-08-01T07:34:57;22.20;99.90
8527;DHT22;4301;48.362;8.478;2022-08-01T07:37:24;22.30;99.90
8527;DHT22;4301;48.362;8.478;2022-08-01T07:39:51;22.10;99.90
8527;DHT22;4301;48.362;8.478;2022-08-01T07:42:20;22.20;99.90
8527;DHT22;4301;48.362;8.478;2022-08-01T07:44:47;22.40;99.90
8527;DHT22;4301;48.362;8.478;2022-08-01T07:47:14;22.60;99.90
8527;DHT22;4301;48.362;8.478;2022-08-01T07:49:41;22.90;99.90
8527;DHT22;4301;48.362;8.478;2022-08-01T07:52:08;23.20;99.90
8527;DHT22;4301;48.362;8.478;2022-08-01T07:54:35;23.40;99.90
8527;DHT22;4301;48.362;8.478;2022-08-01T07:57:03;23.30;99.90
8527;DHT22;4301;48.362;8.478;2022-08-01T07:59:31;23.40;99.90
8527;DHT22;4301;48.362;8.478;2022-08-01T08:01:59;23.80;99.90
8527;DHT22;4301;48.362;8.478;2022-08-01T08:04:26;23.90;99.90
8527;DHT22;4301;48.362;8.478;2022-08-01T08:06:53;23.80;99.90
8527;DHT22;4301;48.362;8.478;2022-08-01T08:09:20;24.00;99.90
8527;DHT22;4301;48.362;8.478;2022-08-01T08:11:47;24.40;99.90
8527;DHT22;4301;48.362;8.478;2022-08-01T08:14:14;24.60;99.90
8527;DHT22;4301;48.362;8.478;2022-08-01T08:16:43;24.70;99.90
8527;DHT22;4301;48.362;8.478;2022-08-01T08:19:10;24.80;99.90
8527;DHT22;4301;48.362;8.478;2022-08-01T08:21:37;24.90;99.90
8527;DHT22;4301;48.362;8.478;2022-08-01T08:24:05;24.90;99.90
8527;DHT22;4301;48.362;8.478;2022-08-01T08:26:50;25.10;99.90
8527;DHT22;4301;48.362;8.478;2022-08-01T08:29:18;25.00;99.90
8527;DHT22;4301;48.362;8.478;2022-08-01T08:31:47;25.20;99.90
8527;DHT22;4301;48.362;8.478;2022-08-01T08:34:14;25.20;99.90
8527;DHT22;4301;48.362;8.478;2022-08-01T08:36:41;25.40;99.90
8527;DHT22;4301;48.362;8.478;2022-08-01T08:39:08;25.50;99.90
8527;DHT22;4301;48.362;8.478;2022-08-01T08:41:36;26.00;99.90
8527;DHT22;4301;48.362;8.478;2022-08-01T08:44:04;26.10;99.90
8527;DHT22;4301;48.362;8.478;2022-08-01T08:46:32;26.50;99.90
8527;DHT22;4301;48.362;8.478;2022-08-01T08:49:01;26.50;99.90
8527;DHT22;4301;48.362;8.478;2022-08-01T08:51:30;26.20;99.90
8527;DHT22;4301;48.362;8.478;2022-08-01T08:53:58;26.40;99.90
8527;DHT22;4301;48.362;8.478;2022-08-01T08:56:26;26.30;99.90
8527;DHT22;4301;48.362;8.478;2022-08-01T08:58:59;26.30;99.90
8527;DHT22;4301;48.362;8.478;2022-08-01T09:01:26;26.50;99.90
8527;DHT22;4301;48.362;8.478;2022-08-01T09:03:53;26.90;99.90
8527;DHT22;4301;48.362;8.478;2022-08-01T09:06:22;26.70;99.90
8527;DHT22;4301;48.362;8.478;2022-08-01T09:08:49;26.80;99.90
8527;DHT22;4301;48.362;8.478;2022-08-01T09:11:16;26.70;99.90
8527;DHT22;4301;48.362;8.478;2022-08-01T09:14:01;26.70;99.90
8527;DHT22;4301;48.362;8.478;2022-08-01T09:16:28;26.90;99.90
8527;DHT22;4301;48.362;8.478;2022-08-01T09:19:06;27.20;99.90
8527;DHT22;4301;48.362;8.478;2022-08-01T09:21:35;28.30;99.90
8527;DHT22;4301;48.362;8.478;2022-08-01T09:24:02;28.40;99.90
8527;DHT22;4301;48.362;8.478;2022-08-01T09:26:32;28.50;99.90
8527;DHT22;4301;48.362;8.478;2022-08-01T09:29:01;28.50;98.10
8527;DHT22;4301;48.362;8.478;2022-08-01T09:31:29;28.10;97.70
8527;DHT22;4301;48.362;8.478;2022-08-01T09:33:58;28.40;97.10
8527;DHT22;4301;48.362;8.478;2022-08-01T09:36:42;29.00;95.60
8527;DHT22;4301;48.362;8.478;2022-08-01T09:39:13;29.40;95.00
8527;DHT22;4301;48.362;8.478;2022-08-01T09:41:41;29.60;94.60
8527;DHT22;4301;48.362;8.478;2022-08-01T09:44:08;29.20;92.70
8527;DHT22;4301;48.362;8.478;2022-08-01T09:46:35;29.50;93.10
8527;DHT22;4301;48.362;8.478;2022-08-01T09:49:04;29.50;92.40
8527;DHT22;4301;48.362;8.478;2022-08-01T09:51:33;29.40;92.30
8527;DHT22;4301;48.362;8.478;2022-08-01T09:54:00;29.20;92.60
8527;DHT22;4301;48.362;8.478;2022-08-01T09:56:37;29.70;91.60
8527;DHT22;4301;48.362;8.478;2022-08-01T09:59:05;30.40;91.10
8527;DHT22;4301;48.362;8.478;2022-08-01T10:01:44;30.00;89.00
8527;DHT22;4301;48.362;8.478;2022-08-01T10:04:15;28.80;90.30
8527;DHT22;4301;48.362;8.478;2022-08-01T10:06:43;28.50;91.20
8527;DHT22;4301;48.362;8.478;2022-08-01T10:09:12;29.10;90.90
8527;DHT22;4301;48.362;8.478;2022-08-01T10:11:42;29.20;90.30
8527;DHT22;4301;48.362;8.478;2022-08-01T10:14:09;30.00;90.20
8527;DHT22;4301;48.362;8.478;2022-08-01T10:16:39;31.10;86.90
8527;DHT22;4301;48.362;8.478;2022-08-01T10:19:07;31.90;84.00
8527;DHT22;4301;48.362;8.478;2022-08-01T10:21:35;32.80;81.50
8527;DHT22;4301;48.362;8.478;2022-08-01T10:24:04;33.00;77.20
8527;DHT22;4301;48.362;8.478;2022-08-01T10:26:33;32.90;75.70
8527;DHT22;4301;48.362;8.478;2022-08-01T10:29:01;32.80;75.00
8527;DHT22;4301;48.362;8.478;2022-08-01T10:31:29;31.40;75.40
8527;DHT22;4301;48.362;8.478;2022-08-01T10:33:59;30.30;76.60
8527;DHT22;4301;48.362;8.478;2022-08-01T10:36:27;29.80;78.00
8527;DHT22;4301;48.362;8.478;2022-08-01T10:38:58;31.00;77.00
8527;DHT22;4301;48.362;8.478;2022-08-01T10:41:26;31.40;75.10
8527;DHT22;4301;48.362;8.478;2022-08-01T10:43:55;31.70;73.60
8527;DHT22;4301;48.362;8.478;2022-08-01T10:46:24;32.00;73.10
8527;DHT22;4301;48.362;8.478;2022-08-01T10:48:56;32.10;71.90
8527;DHT22;4301;48.362;8.478;2022-08-01T10:51:26;32.90;69.30
8527;DHT22;4301;48.362;8.478;2022-08-01T10:53:54;33.90;68.40
8527;DHT22;4301;48.362;8.478;2022-08-01T10:56:23;34.50;67.50
8527;DHT22;4301;48.362;8.478;2022-08-01T10:59:01;34.10;66.30
8527;DHT22;4301;48.362;8.478;2022-08-01T11:01:31;33.40;67.10
8527;DHT22;4301;48.362;8.478;2022-08-01T11:04:09;32.40;68.70
8527;DHT22;4301;48.362;8.478;2022-08-01T11:06:49;31.60;70.10
8527;DHT22;4301;48.362;8.478;2022-08-01T11:09:28;31.30;70.60
8527;DHT22;4301;48.362;8.478;2022-08-01T11:12:01;30.30;70.20
8527;DHT22;4301;48.362;8.478;2022-08-01T11:14:30;30.10;72.40
8527;DHT22;4301;48.362;8.478;2022-08-01T11:17:32;29.90;73.00
8527;DHT22;4301;48.362;8.478;2022-08-01T11:20:10;29.80;73.60
8527;DHT22;4301;48.362;8.478;2022-08-01T11:26:10;29.70;71.50
8527;DHT22;4301;48.362;8.478;2022-08-01T11:28:38;29.20;71.40
8527;DHT22;4301;48.362;8.478;2022-08-01T11:31:27;29.00;73.30
8527;DHT22;4301;48.362;8.478;2022-08-01T11:33:56;29.00;74.60
8527;DHT22;4301;48.362;8.478;2022-08-01T11:36:24;29.30;74.60
8527;DHT22;4301;48.362;8.478;2022-08-01T11:39:10;29.40;73.00
8527;DHT22;4301;48.362;8.478;2022-08-01T11:41:37;29.40;71.40
8527;DHT22;4301;48.362;8.478;2022-08-01T11:44:07;29.30;71.10
8527;DHT22;4301;48.362;8.478;2022-08-01T11:47:05;29.60;70.60
8527;DHT22;4301;48.362;8.478;2022-08-01T11:49:47;29.50;71.90
8527;DHT22;4301;48.362;8.478;2022-08-01T11:52:18;29.30;72.30
8527;DHT22;4301;48.362;8.478;2022-08-01T11:54:47;29.40;72.40
8527;DHT22;4301;48.362;8.478;2022-08-01T11:57:17;29.40;72.50
8527;DHT22;4301;48.362;8.478;2022-08-01T11:59:46;29.40;73.00
8527;DHT22;4301;48.362;8.478;2022-08-01T12:02:24;29.50;71.50
8527;DHT22;4301;48.362;8.478;2022-08-01T12:04:55;29.30;72.90
8527;DHT22;4301;48.362;8.478;2022-08-01T12:07:23;29.20;70.00
8527;DHT22;4301;48.362;8.478;2022-08-01T12:10:02;29.20;73.10
8527;DHT22;4301;48.362;8.478;2022-08-01T12:12:30;29.40;71.60
8527;DHT22;4301;48.362;8.478;2022-08-01T12:14:59;29.60;69.30
8527;DHT22;4301;48.362;8.478;2022-08-01T12:17:32;29.40;70.30
8527;DHT22;4301;48.362;8.478;2022-08-01T12:20:04;29.70;70.40
8527;DHT22;4301;48.362;8.478;2022-08-01T12:22:31;29.80;70.30
8527;DHT22;4301;48.362;8.478;2022-08-01T12:25:05;29.90;68.80
8527;DHT22;4301;48.362;8.478;2022-08-01T12:27:34;30.10;66.80
8527;DHT22;4301;48.362;8.478;2022-08-01T12:30:01;29.90;66.60
8527;DHT22;4301;48.362;8.478;2022-08-01T12:32:33;30.00;67.50
8527;DHT22;4301;48.362;8.478;2022-08-01T12:35:04;29.80;67.40
8527;DHT22;4301;48.362;8.478;2022-08-01T12:37:32;29.50;67.30
8527;DHT22;4301;48.362;8.478;2022-08-01T12:40:06;29.70;69.00
8527;DHT22;4301;48.362;8.478;2022-08-01T12:42:36;29.70;68.60
8527;DHT22;4301;48.362;8.478;2022-08-01T12:45:06;29.90;69.20
8527;DHT22;4301;48.362;8.478;2022-08-01T12:47:35;29.90;67.20
8527;DHT22;4301;48.362;8.478;2022-08-01T12:50:06;29.60;67.20
8527;DHT22;4301;48.362;8.478;2022-08-01T12:52:33;29.60;67.10
8527;DHT22;4301;48.362;8.478;2022-08-01T12:55:06;29.70;66.70
8527;DHT22;4301;48.362;8.478;2022-08-01T12:57:34;30.00;66.90
8527;DHT22;4301;48.362;8.478;2022-08-01T13:00:06;29.70;65.30
8527;DHT22;4301;48.362;8.478;2022-08-01T13:02:34;29.60;66.00
8527;DHT22;4301;48.362;8.478;2022-08-01T13:05:02;29.10;63.30
8527;DHT22;4301;48.362;8.478;2022-08-01T13:07:42;28.60;65.50
8527;DHT22;4301;48.362;8.478;2022-08-01T13:10:11;28.50;66.30
8527;DHT22;4301;48.362;8.478;2022-08-01T13:12:39;28.40;67.10
8527;DHT22;4301;48.362;8.478;2022-08-01T13:15:27;28.50;65.50
8527;DHT22;4301;48.362;8.478;2022-08-01T13:17:56;29.00;66.40
8527;DHT22;4301;48.362;8.478;2022-08-01T13:20:29;29.40;64.20
8527;DHT22;4301;48.362;8.478;2022-08-01T13:23:15;29.30;66.20
8527;DHT22;4301;48.362;8.478;2022-08-01T13:25:50;29.20;65.90
8527;DHT22;4301;48.362;8.478;2022-08-01T13:28:19;29.10;66.40
8527;DHT22;4301;48.362;8.478;2022-08-01T13:30:53;29.10;64.80
8527;DHT22;4301;48.362;8.478;2022-08-01T13:33:21;29.00;65.40
8527;DHT22;4301;48.362;8.478;2022-08-01T13:35:50;29.10;66.90
8527;DHT22;4301;48.362;8.478;2022-08-01T13:38:19;29.00;67.40
8527;DHT22;4301;48.362;8.478;2022-08-01T13:41:07;29.10;66.90
8527;DHT22;4301;48.362;8.478;2022-08-01T13:43:34;29.00;66.50
8527;DHT22;4301;48.362;8.478;2022-08-01T13:46:01;29.00;66.10
8527;DHT22;4301;48.362;8.478;2022-08-01T13:48:30;28.90;68.30
8527;DHT22;4301;48.362;8.478;2022-08-01T13:50:57;28.80;65.80
8527;DHT22;4301;48.362;8.478;2022-08-01T13:53:26;28.70;68.50
8527;DHT22;4301;48.362;8.478;2022-08-01T13:55:53;28.80;69.10
8527;DHT22;4301;48.362;8.478;2022-08-01T13:58:21;29.00;69.10
8527;DHT22;4301;48.362;8.478;2022-08-01T14:00:48;29.30;68.70
8527;DHT22;4301;48.362;8.478;2022-08-01T14:03:15;29.50;67.60
8527;DHT22;4301;48.362;8.478;2022-08-01T14:05:42;29.40;67.20
8527;DHT22;4301;48.362;8.478;2022-08-01T14:08:10;29.40;69.00
8527;DHT22;4301;48.362;8.478;2022-08-01T14:10:38;29.50;66.90
8527;DHT22;4301;48.362;8.478;2022-08-01T14:13:05;29.70;69.00
8527;DHT22;4301;48.362;8.478;2022-08-01T14:15:32;29.80;68.30
8527;DHT22;4301;48.362;8.478;2022-08-01T14:18:00;29.70;68.60
8527;DHT22;4301;48.362;8.478;2022-08-01T14:20:27;29.40;68.30
8527;DHT22;4301;48.362;8.478;2022-08-01T14:22:54;29.40;69.20
8527;DHT22;4301;48.362;8.478;2022-08-01T14:25:21;29.50;69.60
8527;DHT22;4301;48.362;8.478;2022-08-01T14:27:49;29.50;69.60
8527;DHT22;4301;48.362;8.478;2022-08-01T14:30:16;29.50;70.70
8527;DHT22;4301;48.362;8.478;2022-08-01T14:32:43;29.70;70.70
8527;DHT22;4301;48.362;8.478;2022-08-01T14:35:10;29.80;69.60
8527;DHT22;4301;48.362;8.478;2022-08-01T14:37:37;29.10;67.80
8527;DHT22;4301;48.362;8.478;2022-08-01T14:40:08;28.70;69.70
8527;DHT22;4301;48.362;8.478;2022-08-01T14:42:36;28.70;70.40
8527;DHT22;4301;48.362;8.478;2022-08-01T14:45:06;28.60;70.10
8527;DHT22;4301;48.362;8.478;2022-08-01T14:47:35;28.50;70.80
8527;DHT22;4301;48.362;8.478;2022-08-01T14:50:04;28.50;71.20
8527;DHT22;4301;48.362;8.478;2022-08-01T14:52:32;28.40;71.10
8527;DHT22;4301;48.362;8.478;2022-08-01T14:54:58;28.40;71.40
8527;DHT22;4301;48.362;8.478;2022-08-01T14:57:26;28.80;72.50
8527;DHT22;4301;48.362;8.478;2022-08-01T14:59:53;28.60;73.10
8527;DHT22;4301;48.362;8.478;2022-08-01T15:02:22;28.30;73.60
8527;DHT22;4301;48.362;8.478;2022-08-01T15:04:49;28.00;74.30
8527;DHT22;4301;48.362;8.478;2022-08-01T15:07:18;27.80;74.50
8527;DHT22;4301;48.362;8.478;2022-08-01T15:09:45;27.60;75.50
8527;DHT22;4301;48.362;8.478;2022-08-01T15:12:12;27.60;75.80
8527;DHT22;4301;48.362;8.478;2022-08-01T15:14:39;27.60;77.00
8527;DHT22;4301;48.362;8.478;2022-08-01T15:17:17;27.60;76.00
8527;DHT22;4301;48.362;8.478;2022-08-01T15:19:45;27.50;76.70
8527;DHT22;4301;48.362;8.478;2022-08-01T15:22:13;27.30;76.80
8527;DHT22;4301;48.362;8.478;2022-08-01T15:24:40;27.10;76.80
8527;DHT22;4301;48.362;8.478;2022-08-01T15:27:08;27.10;77.30
8527;DHT22;4301;48.362;8.478;2022-08-01T15:29:36;27.10;77.50
8527;DHT22;4301;48.362;8.478;2022-08-01T15:32:05;27.00;78.10
8527;DHT22;4301;48.362;8.478;2022-08-01T15:34:33;26.90;78.20
8527;DHT22;4301;48.362;8.478;2022-08-01T15:37:01;26.80;77.90
8527;DHT22;4301;48.362;8.478;2022-08-01T15:39:29;26.80;78.30
8527;DHT22;4301;48.362;8.478;2022-08-01T15:41:58;26.80;78.30
8527;DHT22;4301;48.362;8.478;2022-08-01T15:44:26;26.60;79.10
8527;DHT22;4301;48.362;8.478;2022-08-01T15:46:53;26.50;79.20
8527;DHT22;4301;48.362;8.478;2022-08-01T15:49:20;26.50;78.90
8527;DHT22;4301;48.362;8.478;2022-08-01T15:51:48;26.50;79.70
8527;DHT22;4301;48.362;8.478;2022-08-01T15:54:17;26.40;80.20
8527;DHT22;4301;48.362;8.478;2022-08-01T15:56:44;26.40;80.30
8527;DHT22;4301;48.362;8.478;2022-08-01T15:59:12;26.30;80.00
8527;DHT22;4301;48.362;8.478;2022-08-01T16:01:40;26.30;80.40
8527;DHT22;4301;48.362;8.478;2022-08-01T16:04:07;26.20;80.60
8527;DHT22;4301;48.362;8.478;2022-08-01T16:06:35;26.20;81.10
8527;DHT22;4301;48.362;8.478;2022-08-01T16:09:02;26.20;81.50
8527;DHT22;4301;48.362;8.478;2022-08-01T16:11:31;26.20;82.50
8527;DHT22;4301;48.362;8.478;2022-08-01T16:13:58;26.20;82.40
8527;DHT22;4301;48.362;8.478;2022-08-01T16:16:26;26.00;82.80
8527;DHT22;4301;48.362;8.478;2022-08-01T16:18:53;25.80;84.40